createdAt,value
2017-06-28T00:00:17.053Z,0
2017-06-28T00:01:27.327Z,0
2017-06-28T00:02:37.611Z,0
2017-06-28T00:03:47.915Z,0
2017-06-28T00:04:58.202Z,0
2017-06-28T00:06:08.483Z,0
2017-06-28T00:07:18.456Z,0
2017-06-28T00:08:28.736Z,0
2017-06-28T00:09:38.706Z,0
2017-06-28T00:10:48.684Z,0
2017-06-28T00:11:58.971Z,0
2017-06-28T00:13:09.257Z,0
2017-06-28T00:14:18.925Z,0
2017-06-28T00:15:28.904Z,0
2017-06-28T00:16:38.583Z,0
2017-06-28T00:17:48.874Z,0
2017-06-28T00:18:59.222Z,0
2017-06-28T00:20:09.503Z,0
2017-06-28T00:21:19.783Z,0
2017-06-28T00:22:30.081Z,0
2017-06-28T00:23:40.359Z,0
2017-06-28T00:24:50.625Z,0
2017-06-28T00:26:00.923Z,0
2017-06-28T00:27:11.208Z,0
2017-06-28T00:28:21.184Z,0
2017-06-28T00:29:31.465Z,0
2017-06-28T00:30:41.741Z,0
2017-06-28T00:31:52.019Z,0
2017-06-28T00:33:02.300Z,0
2017-06-28T00:34:12.281Z,0
2017-06-28T00:35:22.569Z,0
2017-06-28T00:36:32.854Z,0
2017-06-28T00:37:43.148Z,0
2017-06-28T00:38:53.442Z,0
2017-06-28T00:40:03.728Z,0
2017-06-28T00:41:14.013Z,0
2017-06-28T00:42:24.357Z,0
2017-06-28T00:43:34.333Z,0
2017-06-28T00:44:44.015Z,0
2017-06-28T00:45:53.362Z,0
2017-06-28T00:47:03.339Z,0
2017-06-28T00:48:12.747Z,0
2017-06-28T00:49:23.026Z,0
2017-06-28T00:50:33.313Z,0
2017-06-28T00:51:43.285Z,0
2017-06-28T00:52:53.571Z,0
2017-06-28T00:54:03.633Z,0
2017-06-28T00:55:12.983Z,0
2017-06-28T00:56:22.952Z,0
2017-06-28T00:57:33.238Z,0
2017-06-28T00:58:43.515Z,0
2017-06-28T00:59:53.910Z,0
2017-06-28T01:01:04.199Z,0
2017-06-28T01:02:14.487Z,0
2017-06-28T01:03:24.158Z,0
2017-06-28T01:04:34.457Z,0
2017-06-28T01:05:44.798Z,0
2017-06-28T01:06:55.082Z,0
2017-06-28T01:08:05.055Z,0
2017-06-28T01:09:14.708Z,0
2017-06-28T01:10:24.991Z,0
2017-06-28T01:11:35.316Z,0
2017-06-28T01:12:45.618Z,0
2017-06-28T01:13:55.590Z,0
2017-06-28T01:15:05.570Z,0
2017-06-28T01:16:15.544Z,0
2017-06-28T01:17:25.530Z,0
2017-06-28T01:18:35.823Z,0
2017-06-28T01:19:45.794Z,0
2017-06-28T01:20:55.771Z,0
2017-06-28T01:22:05.744Z,0
2017-06-28T01:23:16.024Z,0
2017-06-28T01:24:26.307Z,0
2017-06-28T01:25:36.600Z,0
2017-06-28T01:26:46.578Z,0
2017-06-28T01:27:56.867Z,0
2017-06-28T01:29:07.152Z,0
2017-06-28T01:30:17.450Z,0
2017-06-28T01:31:27.436Z,0
2017-06-28T01:32:37.734Z,0
2017-06-28T01:33:47.695Z,0
2017-06-28T01:34:57.661Z,0
2017-06-28T01:36:07.943Z,0
2017-06-28T01:37:18.231Z,0
2017-06-28T01:38:28.518Z,0
2017-06-28T01:39:38.790Z,0
2017-06-28T01:40:49.127Z,0
2017-06-28T01:41:59.426Z,0
2017-06-28T01:43:09.394Z,0
2017-06-28T01:44:19.674Z,0
2017-06-28T01:45:29.943Z,0
2017-06-28T01:46:39.937Z,0
2017-06-28T01:47:49.907Z,0
2017-06-28T01:48:59.830Z,0
2017-06-28T01:50:10.124Z,0
2017-06-28T01:51:20.406Z,0
2017-06-28T01:52:30.739Z,0
2017-06-28T01:53:41.039Z,0
2017-06-28T01:54:51.312Z,0
2017-06-28T01:56:01.616Z,0
2017-06-28T01:57:11.893Z,0
2017-06-28T01:58:22.220Z,0
2017-06-28T01:59:32.496Z,0
2017-06-28T02:00:42.780Z,0
2017-06-28T02:01:52.439Z,0
2017-06-28T02:03:02.728Z,0
2017-06-28T02:04:13.065Z,0
2017-06-28T02:05:23.342Z,0
2017-06-28T02:06:33.324Z,0
2017-06-28T02:07:43.612Z,0
2017-06-28T02:08:53.907Z,0
2017-06-28T02:10:04.197Z,0
2017-06-28T02:11:14.481Z,0
2017-06-28T02:12:24.766Z,0
2017-06-28T02:13:34.736Z,0
2017-06-28T02:14:45.036Z,0
2017-06-28T02:15:55.025Z,0
2017-06-28T02:17:05.306Z,0
2017-06-28T02:18:15.819Z,0
2017-06-28T02:19:26.120Z,0
2017-06-28T02:20:36.397Z,0
2017-06-28T02:21:46.691Z,0
2017-06-28T02:22:56.703Z,0
2017-06-28T02:24:07.048Z,0
2017-06-28T02:25:17.088Z,0
2017-06-28T02:26:27.121Z,0
2017-06-28T02:27:37.387Z,0
2017-06-28T02:28:47.408Z,0
2017-06-28T02:29:57.434Z,0
2017-06-28T02:31:07.462Z,0
2017-06-28T02:32:17.805Z,0
2017-06-28T02:33:27.833Z,0
2017-06-28T02:34:38.194Z,0
2017-06-28T02:35:48.554Z,0
2017-06-28T02:36:58.586Z,0
2017-06-28T02:38:08.577Z,0
2017-06-28T02:39:18.914Z,0
2017-06-28T02:40:28.939Z,0
2017-06-28T02:41:39.290Z,0
2017-06-28T02:42:49.649Z,0
2017-06-28T02:43:59.685Z,0
2017-06-28T02:45:09.762Z,0
2017-06-28T02:46:20.099Z,0
2017-06-28T02:47:30.477Z,0
2017-06-28T02:48:40.825Z,0
2017-06-28T02:49:50.876Z,0
2017-06-28T02:51:00.965Z,5
2017-06-28T02:52:11.307Z,5
2017-06-28T02:53:21.666Z,5
2017-06-28T02:54:32.010Z,5
2017-06-28T02:55:42.059Z,5
2017-06-28T02:56:52.448Z,5
2017-06-28T02:58:02.772Z,5
2017-06-28T02:59:12.807Z,5
2017-06-28T03:00:22.844Z,5
2017-06-28T03:01:33.182Z,10
2017-06-28T03:33:44.546Z,40
2017-06-28T03:34:54.560Z,40
2017-06-28T03:36:04.904Z,40
2017-06-28T03:37:14.924Z,40
2017-06-28T03:38:24.960Z,45
2017-06-28T03:39:35.338Z,45
2017-06-28T03:40:45.676Z,45
2017-06-28T03:41:55.710Z,50
2017-06-28T03:43:05.766Z,50
2017-06-28T03:44:15.809Z,50
2017-06-28T03:45:26.145Z,50
2017-06-28T03:46:36.170Z,50
2017-06-28T03:47:46.509Z,55
2017-06-28T03:48:56.854Z,55
2017-06-28T03:50:06.884Z,55
2017-06-28T03:51:16.977Z,60
2017-06-28T03:52:27.331Z,65
2017-06-28T03:53:37.674Z,70
2017-06-28T03:54:48.024Z,70
2017-06-28T03:55:58.064Z,65
2017-06-28T03:57:07.837Z,65
2017-06-28T03:58:18.180Z,70
2017-06-28T03:59:27.579Z,70
2017-06-28T04:00:37.972Z,70
2017-06-28T04:01:48.331Z,75
2017-06-28T04:02:58.409Z,75
2017-06-28T04:04:08.134Z,80
2017-06-28T04:05:18.166Z,85
2017-06-28T04:06:27.890Z,85
2017-06-28T04:07:38.227Z,90
2017-06-28T04:08:48.630Z,90
2017-06-28T04:09:58.683Z,95
2017-06-28T04:11:09.026Z,95
2017-06-28T04:12:19.059Z,95
2017-06-28T04:13:29.406Z,95
2017-06-28T04:14:39.815Z,95
2017-06-28T04:15:50.165Z,105
2017-06-28T04:17:00.511Z,100
2017-06-28T04:18:10.873Z,105
2017-06-28T04:19:20.951Z,105
2017-06-28T04:20:31.336Z,170
2017-06-28T04:21:41.406Z,365
2017-06-28T04:22:51.741Z,450
2017-06-28T04:24:01.762Z,465
2017-06-28T04:25:11.472Z,480
2017-06-28T04:26:21.806Z,480
2017-06-28T04:27:31.841Z,495
2017-06-28T04:28:42.206Z,455
2017-06-28T04:29:52.252Z,435
2017-06-28T04:31:02.276Z,475
2017-06-28T04:32:12.677Z,530
2017-06-28T04:33:23.013Z,540
2017-06-28T04:34:33.353Z,530
2017-06-28T04:35:43.390Z,535
2017-06-28T04:36:53.426Z,530
2017-06-28T04:38:03.780Z,550
2017-06-28T04:39:13.810Z,540
2017-06-28T04:40:23.847Z,530
2017-06-28T04:41:33.892Z,580
2017-06-28T04:42:43.935Z,610
2017-06-28T04:43:54.039Z,540
2017-06-28T04:45:04.379Z,505
2017-06-28T04:46:14.754Z,535
2017-06-28T04:47:25.104Z,570
2017-06-28T04:48:35.450Z,520
2017-06-28T04:49:45.169Z,470
2017-06-28T04:50:55.209Z,525
2017-06-28T04:52:05.261Z,530
2017-06-28T04:53:15.291Z,525
2017-06-28T04:54:25.325Z,515
2017-06-28T04:55:35.724Z,540
2017-06-28T04:56:46.081Z,545
2017-06-28T04:57:56.116Z,525
2017-06-28T04:59:06.456Z,520
2017-06-28T05:00:16.800Z,510
2017-06-28T05:01:27.213Z,495
2017-06-28T05:02:37.585Z,520
2017-06-28T05:03:47.947Z,525
2017-06-28T05:04:58.292Z,515
2017-06-28T05:06:08.647Z,530
2017-06-28T05:07:19.056Z,540
2017-06-28T05:08:29.110Z,560
2017-06-28T05:09:39.467Z,580
2017-06-28T05:10:49.818Z,565
2017-06-28T05:12:00.155Z,595
2017-06-28T05:13:09.927Z,605
2017-06-28T05:14:20.278Z,590
2017-06-28T05:15:30.306Z,585
2017-06-28T05:16:40.654Z,575
2017-06-28T05:17:51.007Z,560
2017-06-28T05:19:01.355Z,565
2017-06-28T05:20:11.742Z,580
2017-06-28T05:21:21.786Z,500
2017-06-28T05:22:31.823Z,330
2017-06-28T05:23:42.182Z,330
2017-06-28T05:24:52.539Z,420
2017-06-28T05:26:02.876Z,280
2017-06-28T05:27:13.242Z,255
2017-06-28T05:28:23.604Z,365
2017-06-28T05:29:33.640Z,415
2017-06-28T05:30:43.983Z,530
2017-06-28T05:31:54.344Z,515
2017-06-28T05:33:04.714Z,515
2017-06-28T05:34:14.752Z,500
2017-06-28T05:35:24.784Z,490
2017-06-28T05:36:35.209Z,465
2017-06-28T05:37:45.252Z,455
2017-06-28T05:38:55.279Z,455
2017-06-28T05:40:05.326Z,450
2017-06-28T05:41:15.673Z,470
2017-06-28T05:42:26.100Z,460
2017-06-28T05:43:36.133Z,440
2017-06-28T05:44:46.183Z,435
2017-06-28T05:45:56.222Z,405
2017-06-28T05:47:06.577Z,390
2017-06-28T05:48:16.623Z,375
2017-06-28T05:49:26.674Z,360
2017-06-28T05:50:36.722Z,365
2017-06-28T05:51:47.072Z,365
2017-06-28T05:52:57.436Z,360
2017-06-28T05:54:07.842Z,355
2017-06-28T05:55:18.192Z,355
2017-06-28T05:56:28.556Z,365
2017-06-28T05:57:38.904Z,370
2017-06-28T05:58:48.942Z,370
2017-06-28T05:59:58.987Z,370
2017-06-28T06:01:09.344Z,365
2017-06-28T06:02:19.699Z,365
2017-06-28T06:03:30.048Z,365
2017-06-28T06:04:40.119Z,365
2017-06-28T06:05:50.548Z,365
2017-06-28T06:07:00.922Z,365
2017-06-28T06:08:11.274Z,365
2017-06-28T06:09:21.636Z,365
2017-06-28T06:10:31.666Z,370
2017-06-28T06:11:41.759Z,365
2017-06-28T06:12:52.100Z,370
2017-06-28T06:14:02.458Z,380
2017-06-28T06:15:12.497Z,365
2017-06-28T06:16:22.546Z,360
2017-06-28T06:17:32.953Z,360
2017-06-28T06:18:43.315Z,355
2017-06-28T06:19:53.658Z,355
2017-06-28T06:21:04.013Z,355
2017-06-28T06:22:14.377Z,350
2017-06-28T06:23:24.778Z,350
2017-06-28T06:24:35.164Z,350
2017-06-28T06:25:45.518Z,350
2017-06-28T06:26:55.237Z,330
2017-06-28T06:28:05.283Z,355
2017-06-28T06:29:15.646Z,335
2017-06-28T06:30:25.674Z,340
2017-06-28T06:31:35.710Z,340
2017-06-28T06:32:45.753Z,340
2017-06-28T06:33:56.103Z,330
2017-06-28T06:35:06.454Z,330
2017-06-28T06:36:16.799Z,325
2017-06-28T06:37:27.157Z,320
2017-06-28T06:38:37.529Z,315
2017-06-28T06:39:47.881Z,310
2017-06-28T06:40:58.265Z,310
2017-06-28T06:42:08.644Z,315
2017-06-28T06:43:18.996Z,310
2017-06-28T06:44:29.381Z,310
2017-06-28T06:45:39.730Z,305
2017-06-28T06:46:49.816Z,300
2017-06-28T06:47:59.860Z,300
2017-06-28T06:49:09.949Z,300
2017-06-28T06:50:20.313Z,295
2017-06-28T06:51:30.670Z,295
2017-06-28T06:52:40.724Z,295
2017-06-28T06:53:51.083Z,295
2017-06-28T06:55:00.826Z,290
2017-06-28T06:56:10.866Z,290
2017-06-28T06:57:20.910Z,285
2017-06-28T06:58:31.314Z,290
2017-06-28T06:59:41.677Z,290
2017-06-28T07:00:51.404Z,295
2017-06-28T07:02:01.775Z,250
2017-06-28T07:03:12.138Z,300
2017-06-28T07:04:22.555Z,270
2017-06-28T07:05:32.601Z,255
2017-06-28T07:06:42.950Z,225
2017-06-28T07:07:52.984Z,250
2017-06-28T07:09:03.336Z,310
2017-06-28T07:10:13.750Z,290
2017-06-28T07:11:23.830Z,280
2017-06-28T07:12:34.188Z,245
2017-06-28T07:13:44.243Z,250
2017-06-28T07:14:54.586Z,285
2017-06-28T07:16:04.997Z,240
2017-06-28T07:17:15.341Z,260
2017-06-28T07:18:25.695Z,280
2017-06-28T07:19:35.743Z,275
2017-06-28T07:20:46.091Z,280
2017-06-28T07:21:55.892Z,275
2017-06-28T07:23:06.247Z,280
2017-06-28T07:24:16.598Z,290
2017-06-28T07:25:26.971Z,285
2017-06-28T07:26:37.005Z,290
2017-06-28T07:27:47.428Z,300
2017-06-28T07:28:57.769Z,275
2017-06-28T07:30:08.138Z,295
2017-06-28T07:31:18.522Z,265
2017-06-28T07:32:28.897Z,255
2017-06-28T07:33:39.262Z,260
2017-06-28T07:34:49.674Z,250
2017-06-28T07:35:59.711Z,250
2017-06-28T07:37:10.184Z,245
2017-06-28T07:38:19.909Z,240
2017-06-28T07:39:30.317Z,245
2017-06-28T07:40:40.678Z,245
2017-06-28T07:41:50.725Z,240
2017-06-28T07:43:00.770Z,230
2017-06-28T07:44:11.129Z,225
2017-06-28T07:45:21.541Z,225
2017-06-28T07:46:31.573Z,225
2017-06-28T07:47:41.634Z,220
2017-06-28T07:48:51.994Z,215
2017-06-28T07:50:01.760Z,215
2017-06-28T07:51:11.794Z,215
2017-06-28T07:52:21.860Z,215
2017-06-28T07:53:32.241Z,215
2017-06-28T07:54:42.317Z,205
2017-06-28T07:55:52.674Z,205
2017-06-28T07:57:03.031Z,210
2017-06-28T07:58:13.076Z,210
2017-06-28T07:59:23.145Z,210
2017-06-28T08:00:33.514Z,225
2017-06-28T08:01:43.556Z,245
2017-06-28T08:02:53.957Z,300
2017-06-28T08:04:04.319Z,285
2017-06-28T08:05:14.697Z,280
2017-06-28T08:06:25.055Z,245
2017-06-28T08:07:35.439Z,240
2017-06-28T08:08:45.844Z,235
2017-06-28T08:09:55.883Z,225
2017-06-28T08:11:06.241Z,220
2017-06-28T08:12:16.601Z,220
2017-06-28T08:13:26.963Z,215
2017-06-28T08:14:37.385Z,220
2017-06-28T08:15:47.743Z,225
2017-06-28T08:16:58.093Z,225
2017-06-28T08:18:08.436Z,220
2017-06-28T08:19:18.788Z,215
2017-06-28T08:20:29.183Z,215
2017-06-28T08:21:39.547Z,220
2017-06-28T08:22:49.898Z,225
2017-06-28T08:24:00.258Z,230
2017-06-28T08:25:10.614Z,240
2017-06-28T08:26:20.691Z,245
2017-06-28T08:27:30.734Z,250
2017-06-28T08:28:40.766Z,255
2017-06-28T08:29:51.118Z,255
2017-06-28T08:31:01.460Z,260
2017-06-28T08:32:11.865Z,265
2017-06-28T08:33:22.224Z,270
2017-06-28T08:34:32.591Z,265
2017-06-28T08:35:42.998Z,260
2017-06-28T08:36:53.354Z,255
2017-06-28T08:38:03.408Z,255
2017-06-28T08:39:13.775Z,255
2017-06-28T08:40:23.803Z,245
2017-06-28T08:41:33.850Z,245
2017-06-28T08:42:44.218Z,250
2017-06-28T08:43:54.571Z,265
2017-06-28T08:45:04.602Z,345
2017-06-28T08:46:15.022Z,350
2017-06-28T08:47:25.389Z,320
2017-06-28T08:48:35.736Z,365
2017-06-28T08:49:45.467Z,365
2017-06-28T08:50:55.821Z,365
2017-06-28T08:52:07.216Z,370
2017-06-28T08:53:17.907Z,360
2017-06-28T08:54:28.163Z,360
2017-06-28T08:55:38.231Z,355
2017-06-28T08:56:48.779Z,360
2017-06-28T08:57:59.291Z,365
2017-06-28T08:59:09.351Z,360
2017-06-28T09:00:19.711Z,340
2017-06-28T09:01:30.069Z,360
2017-06-28T09:02:40.499Z,290
2017-06-28T09:03:50.589Z,280
2017-06-28T09:05:00.642Z,285
2017-06-28T09:06:11.010Z,300
2017-06-28T09:07:21.374Z,295
2017-06-28T09:08:31.775Z,320
2017-06-28T09:09:42.333Z,350
2017-06-28T09:10:52.363Z,350
2017-06-28T09:12:02.418Z,330
2017-06-28T09:13:12.469Z,335
2017-06-28T09:14:22.837Z,330
2017-06-28T09:15:33.184Z,320
2017-06-28T09:16:43.220Z,290
2017-06-28T09:17:53.583Z,295
2017-06-28T09:19:03.943Z,245
2017-06-28T09:20:14.004Z,265
2017-06-28T09:21:24.063Z,280
2017-06-28T09:22:34.426Z,285
2017-06-28T09:23:44.802Z,280
2017-06-28T09:24:55.149Z,250
2017-06-28T09:26:04.870Z,255
2017-06-28T09:27:14.591Z,250
2017-06-28T09:28:24.941Z,245
2017-06-28T09:29:35.298Z,245
2017-06-28T09:30:45.665Z,235
2017-06-28T09:31:55.707Z,230
2017-06-28T09:33:06.107Z,230
2017-06-28T09:34:16.466Z,230
2017-06-28T09:35:26.809Z,230
2017-06-28T09:36:37.171Z,235
2017-06-28T09:37:47.541Z,240
2017-06-28T09:38:57.933Z,215
2017-06-28T09:40:08.306Z,230
2017-06-28T09:41:18.349Z,235
2017-06-28T09:42:28.706Z,235
2017-06-28T09:43:39.105Z,240
2017-06-28T09:44:49.492Z,245
2017-06-28T09:45:59.845Z,250
2017-06-28T09:47:09.887Z,250
2017-06-28T09:48:20.253Z,255
2017-06-28T09:49:30.363Z,255
2017-06-28T09:50:40.724Z,250
2017-06-28T09:51:50.772Z,245
2017-06-28T09:53:01.140Z,240
2017-06-28T09:54:11.507Z,240
2017-06-28T09:55:21.613Z,230
2017-06-28T09:56:31.337Z,220
2017-06-28T09:57:41.380Z,200
2017-06-28T09:58:51.425Z,235
2017-06-28T10:00:01.780Z,245
2017-06-28T10:01:11.564Z,250
2017-06-28T10:02:21.920Z,250
2017-06-28T10:03:32.272Z,245
2017-06-28T10:04:42.637Z,250
2017-06-28T10:05:52.984Z,255
2017-06-28T10:07:03.358Z,245
2017-06-28T10:08:13.409Z,230
2017-06-28T10:09:23.773Z,245
2017-06-28T10:10:33.815Z,235
2017-06-28T10:11:43.865Z,240
2017-06-28T10:12:54.324Z,260
2017-06-28T10:14:04.688Z,265
2017-06-28T10:15:15.060Z,275
2017-06-28T10:16:25.410Z,270
2017-06-28T10:17:35.767Z,265
2017-06-28T10:18:46.183Z,265
2017-06-28T10:19:56.576Z,235
2017-06-28T10:21:06.938Z,215
2017-06-28T10:22:16.994Z,210
2017-06-28T10:23:27.361Z,215
2017-06-28T10:24:37.781Z,235
2017-06-28T10:25:48.161Z,230
2017-06-28T10:26:58.558Z,265
2017-06-28T10:28:09.060Z,305
2017-06-28T10:29:19.413Z,275
2017-06-28T10:30:29.522Z,295
2017-06-28T10:31:39.900Z,305
2017-06-28T10:32:49.949Z,315
2017-06-28T10:33:59.995Z,320
2017-06-28T10:35:10.367Z,320
2017-06-28T10:36:20.765Z,330
2017-06-28T10:37:31.151Z,325
2017-06-28T10:38:41.202Z,315
2017-06-28T10:39:51.567Z,260
2017-06-28T10:41:01.294Z,250
2017-06-28T10:42:11.727Z,260
2017-06-28T10:43:22.089Z,290
2017-06-28T10:44:32.452Z,325
2017-06-28T10:45:42.826Z,300
2017-06-28T10:46:53.196Z,305
2017-06-28T10:48:03.245Z,305
2017-06-28T10:49:13.311Z,310
2017-06-28T10:50:23.671Z,315
2017-06-28T10:51:34.062Z,325
2017-06-28T10:52:44.113Z,325
2017-06-28T10:53:54.527Z,320
2017-06-28T10:55:04.887Z,310
2017-06-28T10:56:14.945Z,300
2017-06-28T10:57:25.312Z,315
2017-06-28T10:58:35.693Z,315
2017-06-28T10:59:46.122Z,300
2017-06-28T11:00:56.510Z,310
2017-06-28T11:02:06.565Z,320
2017-06-28T11:03:16.929Z,305
2017-06-28T11:04:26.993Z,285
2017-06-28T11:05:37.420Z,310
2017-06-28T11:06:47.780Z,340
2017-06-28T11:07:58.155Z,275
2017-06-28T11:09:08.532Z,235
2017-06-28T11:10:18.908Z,255
2017-06-28T11:11:29.013Z,240
2017-06-28T11:12:39.368Z,225
2017-06-28T11:13:49.725Z,210
2017-06-28T11:15:00.098Z,230
2017-06-28T11:16:10.456Z,335
2017-06-28T11:17:20.880Z,350
2017-06-28T11:18:30.954Z,360
2017-06-28T11:19:41.322Z,340
2017-06-28T11:20:51.369Z,350
2017-06-28T11:22:01.418Z,320
2017-06-28T11:23:11.472Z,315
2017-06-28T11:24:21.844Z,305
2017-06-28T11:25:32.213Z,325
2017-06-28T11:26:42.594Z,315
2017-06-28T11:27:52.974Z,340
2017-06-28T11:29:03.100Z,345
2017-06-28T11:30:13.471Z,360
2017-06-28T11:31:23.757Z,335
2017-06-28T11:32:33.508Z,345
2017-06-28T11:33:43.881Z,355
2017-06-28T11:34:54.296Z,345
2017-06-28T11:36:04.647Z,355
2017-06-28T11:37:15.030Z,360
2017-06-28T11:38:25.424Z,350
2017-06-28T11:39:35.805Z,330
2017-06-28T11:40:46.224Z,355
2017-06-28T11:41:56.582Z,365
2017-06-28T11:43:06.644Z,375
2017-06-28T11:44:17.015Z,365
2017-06-28T11:45:27.427Z,345
2017-06-28T11:46:37.848Z,330
2017-06-28T11:47:48.220Z,305
2017-06-28T11:48:58.182Z,305
2017-06-28T11:50:08.231Z,295
2017-06-28T11:51:18.613Z,285
2017-06-28T11:52:28.738Z,265
2017-06-28T11:53:38.805Z,275
2017-06-28T11:54:49.192Z,280
2017-06-28T11:55:59.573Z,285
2017-06-28T11:57:09.944Z,275
2017-06-28T11:58:20.383Z,275
2017-06-28T11:59:30.765Z,285
2017-06-28T12:00:40.843Z,275
2017-06-28T12:01:51.240Z,275
2017-06-28T12:03:01.611Z,285
2017-06-28T12:04:11.986Z,300
2017-06-28T12:05:22.087Z,305
2017-06-28T12:06:32.464Z,310
2017-06-28T12:07:42.526Z,315
2017-06-28T12:08:52.634Z,320
2017-06-28T12:10:02.737Z,320
2017-06-28T12:11:13.099Z,320
2017-06-28T12:12:23.159Z,345
2017-06-28T12:13:33.535Z,340
2017-06-28T12:14:43.900Z,345
2017-06-28T12:15:54.358Z,345
2017-06-28T12:17:04.767Z,340
2017-06-28T12:18:15.122Z,345
2017-06-28T12:19:25.498Z,345
2017-06-28T12:20:35.867Z,350
2017-06-28T12:21:46.306Z,345
2017-06-28T12:22:56.683Z,350
2017-06-28T12:24:06.736Z,345
2017-06-28T12:25:17.104Z,330
2017-06-28T12:26:26.846Z,330
2017-06-28T12:27:36.918Z,310
2017-06-28T12:28:47.300Z,315
2017-06-28T12:29:57.371Z,330
2017-06-28T12:31:07.423Z,335
2017-06-28T12:32:17.788Z,365
2017-06-28T12:33:28.217Z,370
2017-06-28T12:34:38.584Z,370
2017-06-28T12:35:48.967Z,410
2017-06-28T12:36:59.043Z,405
2017-06-28T12:38:09.438Z,430
2017-06-28T12:39:19.860Z,415
2017-06-28T12:40:29.909Z,415
2017-06-28T12:41:40.278Z,410
2017-06-28T12:42:50.675Z,400
2017-06-28T12:44:00.751Z,390
2017-06-28T12:45:11.191Z,375
2017-06-28T12:46:21.239Z,370
2017-06-28T12:47:31.620Z,360
2017-06-28T12:48:41.991Z,345
2017-06-28T12:49:52.366Z,325
2017-06-28T12:51:02.791Z,315
2017-06-28T12:52:13.165Z,315
2017-06-28T12:53:23.540Z,310
2017-06-28T12:54:33.955Z,315
2017-06-28T12:55:44.325Z,340
2017-06-28T12:56:54.741Z,335
2017-06-28T12:58:05.146Z,315
2017-06-28T12:59:15.523Z,310
2017-06-28T13:00:25.890Z,310
2017-06-28T13:01:35.950Z,260
2017-06-28T13:02:46.388Z,250
2017-06-28T13:03:56.136Z,230
2017-06-28T13:05:06.195Z,315
2017-06-28T13:06:16.282Z,330
2017-06-28T13:07:26.652Z,335
2017-06-28T13:08:37.094Z,345
2017-06-28T13:09:47.481Z,350
2017-06-28T13:10:57.551Z,350
2017-06-28T13:12:07.606Z,340
2017-06-28T13:13:17.969Z,330
2017-06-28T13:14:28.343Z,300
2017-06-28T13:15:38.726Z,270
2017-06-28T13:16:48.999Z,275
2017-06-28T13:17:59.400Z,270
2017-06-28T13:19:09.771Z,285
2017-06-28T13:20:20.230Z,290
2017-06-28T13:21:30.296Z,305
2017-06-28T13:22:40.656Z,295
2017-06-28T13:23:50.722Z,290
2017-06-28T13:25:01.094Z,280
2017-06-28T13:26:11.235Z,275
2017-06-28T13:27:21.605Z,280
2017-06-28T13:28:31.971Z,270
2017-06-28T13:29:42.361Z,270
2017-06-28T13:30:52.747Z,260
2017-06-28T13:32:02.871Z,250
2017-06-28T13:33:13.238Z,250
2017-06-28T13:34:23.308Z,250
2017-06-28T13:35:33.690Z,255
2017-06-28T13:36:43.756Z,255
2017-06-28T13:37:54.196Z,250
2017-06-28T13:39:04.611Z,260
2017-06-28T13:40:14.965Z,220
2017-06-28T13:41:25.339Z,230
2017-06-28T13:42:35.411Z,240
2017-06-28T13:43:45.492Z,245
2017-06-28T13:44:55.240Z,230
2017-06-28T13:46:05.617Z,230
2017-06-28T13:47:16.029Z,230
2017-06-28T13:48:26.406Z,215
2017-06-28T13:49:36.513Z,210
2017-06-28T13:50:46.869Z,210
2017-06-28T13:51:57.269Z,215
2017-06-28T13:53:07.648Z,235
2017-06-28T13:54:17.997Z,245
2017-06-28T13:55:28.406Z,215
2017-06-28T13:56:38.792Z,235
2017-06-28T13:57:48.850Z,225
2017-06-28T13:58:58.596Z,230
2017-06-28T14:00:09.017Z,230
2017-06-28T14:01:19.092Z,245
2017-06-28T14:02:29.481Z,250
2017-06-28T14:03:39.847Z,270
2017-06-28T14:04:49.894Z,265
2017-06-28T14:06:00.267Z,270
2017-06-28T14:07:09.994Z,270
2017-06-28T14:08:20.109Z,275
2017-06-28T14:09:30.475Z,270
2017-06-28T14:10:40.229Z,260
2017-06-28T14:11:50.588Z,230
2017-06-28T14:13:00.621Z,240
2017-06-28T14:14:11.033Z,200
2017-06-28T14:15:21.420Z,200
2017-06-28T14:16:31.463Z,230
2017-06-28T14:17:41.855Z,235
2017-06-28T14:18:51.936Z,235
2017-06-28T14:20:01.737Z,225
2017-06-28T14:21:11.789Z,235
2017-06-28T14:22:21.856Z,240
2017-06-28T14:23:31.908Z,245
2017-06-28T14:24:42.279Z,235
2017-06-28T14:25:52.657Z,210
2017-06-28T14:27:03.031Z,175
2017-06-28T14:28:13.084Z,200
2017-06-28T14:29:23.461Z,205
2017-06-28T14:30:33.523Z,200
2017-06-28T14:31:43.013Z,200
2017-06-28T14:32:53.057Z,200
2017-06-28T14:34:03.422Z,190
2017-06-28T14:35:13.797Z,190
2017-06-28T14:36:24.168Z,200
2017-06-28T14:37:34.254Z,200
2017-06-28T14:38:44.311Z,200
2017-06-28T14:39:54.726Z,200
2017-06-28T14:41:05.112Z,185
2017-06-28T14:42:15.173Z,180
2017-06-28T14:43:25.233Z,180
2017-06-28T14:44:35.302Z,185
2017-06-28T14:45:45.363Z,200
2017-06-28T14:46:55.729Z,210
2017-06-28T14:48:06.100Z,225
2017-06-28T14:49:16.510Z,235
2017-06-28T14:50:26.882Z,240
2017-06-28T14:51:37.279Z,245
2017-06-28T14:52:47.650Z,245
2017-06-28T14:53:58.031Z,240
2017-06-28T14:55:08.438Z,240
2017-06-28T14:56:18.819Z,240
2017-06-28T14:57:28.893Z,235
2017-06-28T14:58:38.644Z,230
2017-06-28T14:59:48.713Z,225
2017-06-28T15:00:59.164Z,225
2017-06-28T15:02:09.553Z,205
2017-06-28T15:03:19.650Z,180
2017-06-28T15:04:30.032Z,170
2017-06-28T15:05:40.097Z,155
2017-06-28T15:06:50.138Z,150
2017-06-28T15:08:00.520Z,155
2017-06-28T15:09:10.898Z,160
2017-06-28T15:10:21.256Z,165
2017-06-28T15:11:31.326Z,180
2017-06-28T15:12:41.695Z,190
2017-06-28T15:13:52.088Z,200
2017-06-28T15:15:02.173Z,210
2017-06-28T15:16:12.233Z,220
2017-06-28T15:17:22.292Z,230
2017-06-28T15:18:32.659Z,225
2017-06-28T15:19:43.041Z,225
2017-06-28T15:20:53.440Z,225
2017-06-28T15:22:03.498Z,225
2017-06-28T15:23:13.558Z,225
2017-06-28T15:24:23.614Z,225
2017-06-28T15:25:33.643Z,230
2017-06-28T15:26:44.030Z,235
2017-06-28T15:27:54.391Z,230
2017-06-28T15:29:04.777Z,230
2017-06-28T15:30:15.165Z,225
2017-06-28T15:31:25.567Z,225
2017-06-28T15:32:35.933Z,220
2017-06-28T15:33:46.311Z,220
2017-06-28T15:34:56.674Z,215
2017-06-28T15:36:06.823Z,210
2017-06-28T15:37:17.199Z,205
2017-06-28T15:38:26.961Z,205
2017-06-28T15:39:37.352Z,200
2017-06-28T15:40:47.412Z,200
2017-06-28T15:41:57.831Z,200
2017-06-28T15:43:08.194Z,205
2017-06-28T15:44:18.579Z,200
2017-06-28T15:45:28.622Z,200
2017-06-28T15:46:38.682Z,195
2017-06-28T15:47:48.717Z,195
2017-06-28T15:48:59.080Z,190
2017-06-28T15:50:09.445Z,185
2017-06-28T15:51:19.818Z,175
2017-06-28T15:52:29.865Z,190
2017-06-28T15:53:39.665Z,190
2017-06-28T15:54:49.440Z,185
2017-06-28T15:55:59.491Z,190
2017-06-28T15:57:09.533Z,205
2017-06-28T15:58:19.907Z,210
2017-06-28T15:59:30.319Z,205
2017-06-28T16:00:40.385Z,205
2017-06-28T16:01:50.752Z,205
2017-06-28T16:03:01.125Z,205
2017-06-28T16:04:11.178Z,205
2017-06-28T16:05:21.316Z,205
2017-06-28T16:06:31.686Z,210
2017-06-28T16:07:41.742Z,215
2017-06-28T16:08:52.135Z,230
2017-06-28T16:10:02.523Z,235
2017-06-28T16:11:12.938Z,240
2017-06-28T16:12:23.318Z,235
2017-06-28T16:13:33.725Z,220
2017-06-28T16:14:44.076Z,220
2017-06-28T16:15:54.449Z,215
2017-06-28T16:17:04.862Z,205
2017-06-28T16:18:14.930Z,195
2017-06-28T16:19:25.309Z,185
2017-06-28T16:20:35.358Z,185
2017-06-28T16:21:45.719Z,180
2017-06-28T16:22:56.143Z,175
2017-06-28T16:24:06.491Z,175
2017-06-28T16:25:16.870Z,175
2017-06-28T16:26:27.236Z,175
2017-06-28T16:27:37.603Z,175
2017-06-28T16:28:48.046Z,175
2017-06-28T16:29:58.443Z,170
2017-06-28T16:31:08.805Z,170
2017-06-28T16:32:19.194Z,165
2017-06-28T16:33:29.615Z,165
2017-06-28T16:34:40.049Z,160
2017-06-28T16:35:50.444Z,160
2017-06-28T16:37:00.585Z,165
2017-06-28T16:38:10.335Z,165
2017-06-28T16:39:20.709Z,165
2017-06-28T16:40:30.766Z,165
2017-06-28T16:41:41.145Z,165
2017-06-28T16:42:51.525Z,160
2017-06-28T16:44:01.927Z,160
2017-06-28T16:45:11.975Z,160
2017-06-28T16:46:22.084Z,160
2017-06-28T16:47:32.466Z,160
2017-06-28T16:48:42.838Z,160
2017-06-28T16:49:53.222Z,165
2017-06-28T16:51:03.595Z,165
2017-06-28T16:52:13.688Z,160